createdAt,value
2019-05-01T00:02:15.995Z,23.65
2019-05-01T00:05:10.369Z,23.66
2019-05-01T00:07:40.453Z,23.65
2019-05-01T00:10:10.301Z,23.66
2019-05-01T00:12:39.916Z,23.65
2019-05-01T00:15:10.325Z,23.65
2019-05-01T00:17:39.822Z,23.65
2019-05-01T00:20:09.477Z,23.66
2019-05-01T00:22:38.974Z,23.66
2019-05-01T00:25:08.524Z,23.68
2019-05-01T00:27:38.050Z,23.67
2019-05-01T00:30:09.820Z,23.68
2019-05-01T00:32:39.298Z,23.68
2019-05-01T00:35:08.987Z,23.68
2019-05-01T00:37:38.455Z,23.68
2019-05-01T00:40:08.048Z,23.69
2019-05-01T00:42:37.488Z,23.69
2019-05-01T00:45:07.151Z,23.69
2019-05-01T00:47:36.609Z,23.69
2019-05-01T00:50:06.192Z,23.71
2019-05-01T00:52:35.699Z,23.71
2019-05-01T00:55:23.341Z,23.71
2019-05-01T00:58:03.476Z,23.72
2019-05-01T01:00:50.680Z,23.71
2019-05-01T01:03:20.492Z,23.71
2019-05-01T01:05:50.107Z,23.72
2019-05-01T01:08:19.586Z,23.71
2019-05-01T01:10:49.141Z,23.72
2019-05-01T01:13:18.591Z,23.72
2019-05-01T01:15:48.064Z,23.72
2019-05-01T01:18:17.544Z,23.73
2019-05-01T01:20:47.008Z,23.73
2019-05-01T01:23:16.645Z,23.75
2019-05-01T01:25:46.166Z,23.74
2019-05-01T01:28:15.917Z,23.75
2019-05-01T01:30:55.621Z,23.75
2019-05-01T01:33:16.708Z,23.76
2019-05-01T01:35:46.244Z,23.75
2019-05-01T01:38:15.677Z,23.76
2019-05-01T01:40:45.409Z,23.78
2019-05-01T01:43:33.078Z,23.78
2019-05-01T01:46:05.121Z,23.79
2019-05-01T01:48:34.838Z,23.78
2019-05-01T01:51:04.948Z,23.78
2019-05-01T01:53:35.014Z,23.78
2019-05-01T01:56:05.508Z,23.78
2019-05-01T01:58:35.532Z,23.79
2019-05-01T02:01:19.449Z,23.80
2019-05-01T02:03:54.863Z,23.79
2019-05-01T02:06:24.560Z,23.80
2019-05-01T02:08:56.744Z,23.80
2019-05-01T02:11:26.249Z,23.81
2019-05-01T02:13:57.542Z,23.82
2019-05-01T02:16:27.187Z,23.84
2019-05-01T02:18:56.830Z,23.85
2019-05-01T02:21:26.225Z,23.86
2019-05-01T02:23:55.778Z,23.87
2019-05-01T02:26:27.889Z,23.88
2019-05-01T02:29:19.204Z,23.88
2019-05-01T02:31:51.125Z,23.89
2019-05-01T02:34:21.814Z,23.88
2019-05-01T02:36:54.258Z,23.90
2019-05-01T02:39:24.946Z,23.90
2019-05-01T02:41:57.438Z,23.90
2019-05-01T02:44:39.349Z,23.90
2019-05-01T02:47:11.981Z,23.90
2019-05-01T02:49:53.246Z,23.91
2019-05-01T02:52:26.246Z,23.92
2019-05-01T02:54:58.508Z,23.92
2019-05-01T02:57:29.865Z,23.92
2019-05-01T03:00:00.139Z,23.92
2019-05-01T03:02:30.901Z,23.93
2019-05-01T03:05:01.467Z,23.96
2019-05-01T03:07:34.101Z,23.97
2019-05-01T03:10:08.895Z,23.98
2019-05-01T03:12:39.537Z,23.99
2019-05-01T03:15:10.604Z,24.00
2019-05-01T03:17:50.734Z,24.01
2019-05-01T03:20:32.974Z,24.03
2019-05-01T03:23:22.139Z,24.07
2019-05-01T03:25:52.478Z,24.14
2019-05-01T03:28:23.693Z,24.22
2019-05-01T03:30:53.594Z,24.29
2019-05-01T03:33:23.220Z,24.36
2019-05-01T03:35:53.201Z,24.42
2019-05-01T03:38:24.716Z,24.47
2019-05-01T03:40:54.701Z,24.51
2019-05-01T03:43:25.090Z,24.56
2019-05-01T03:45:56.064Z,24.58
2019-05-01T03:48:26.018Z,24.61
2019-05-01T03:50:55.967Z,24.62
2019-05-01T03:53:26.044Z,24.65
2019-05-01T03:55:55.863Z,24.68
2019-05-01T03:58:25.656Z,24.73
2019-05-01T04:01:20.127Z,24.76
2019-05-01T04:03:55.680Z,24.78
2019-05-01T04:06:25.394Z,24.82
2019-05-01T04:08:55.351Z,24.84
2019-05-01T04:11:24.916Z,24.87
2019-05-01T04:13:54.840Z,24.91
2019-05-01T04:16:24.524Z,24.92
2019-05-01T04:18:54.124Z,24.95
2019-05-01T04:21:30.708Z,24.98
2019-05-01T04:24:00.611Z,25.01
2019-05-01T04:26:30.260Z,25.05
2019-05-01T04:29:21.884Z,25.08
2019-05-01T04:31:56.504Z,25.13
2019-05-01T04:34:32.284Z,25.16
2019-05-01T04:37:03.951Z,25.21
2019-05-01T04:39:34.327Z,25.22
2019-05-01T04:42:03.897Z,25.24
2019-05-01T04:44:33.689Z,25.26
2019-05-01T04:47:04.087Z,25.26
2019-05-01T04:49:33.569Z,25.26
2019-05-01T04:52:03.679Z,25.25
2019-05-01T04:54:33.368Z,25.26
2019-05-01T04:57:02.996Z,25.26
2019-05-01T04:59:33.976Z,25.26
2019-05-01T05:02:06.626Z,25.27
2019-05-01T05:04:36.168Z,25.27
2019-05-01T05:07:06.091Z,25.27
2019-05-01T05:09:48.242Z,25.28
2019-05-01T05:12:52.267Z,25.31
2019-05-01T05:15:36.695Z,25.33
2019-05-01T05:18:06.391Z,25.34
2019-05-01T05:20:36.274Z,25.37
2019-05-01T05:23:05.953Z,25.41
2019-05-01T05:25:35.916Z,25.44
2019-05-01T05:28:06.756Z,25.48
2019-05-01T05:30:37.345Z,25.52
2019-05-01T05:33:18.218Z,25.56
2019-05-01T05:35:42.065Z,25.60
2019-05-01T05:38:24.433Z,25.63
2019-05-01T05:40:54.531Z,25.65
2019-05-01T05:43:24.804Z,25.67
2019-05-01T05:45:54.569Z,25.68
2019-05-01T05:48:24.592Z,25.68
2019-05-01T05:51:13.572Z,25.69
2019-05-01T05:53:46.952Z,25.69
2019-05-01T05:56:23.109Z,25.69
2019-05-01T05:58:58.082Z,25.69
2019-05-01T06:01:53.877Z,25.69
2019-05-01T06:04:41.459Z,25.68
2019-05-01T06:07:31.505Z,25.68
2019-05-01T06:10:09.204Z,25.66
2019-05-01T06:12:48.272Z,25.66
2019-05-01T06:15:30.955Z,25.65
2019-05-01T06:18:09.252Z,25.64
2019-05-01T06:21:04.062Z,25.64
2019-05-01T06:23:45.647Z,25.64
2019-05-01T06:26:32.093Z,25.63
2019-05-01T06:29:02.176Z,25.64
2019-05-01T06:31:33.481Z,25.64
2019-05-01T06:34:04.416Z,25.62
2019-05-01T06:36:36.949Z,25.61
2019-05-01T06:39:11.729Z,25.61
2019-05-01T06:41:44.475Z,25.61
2019-05-01T06:44:23.711Z,25.61
2019-05-01T06:47:05.134Z,25.61
2019-05-01T06:49:54.026Z,25.61
2019-05-01T06:52:29.314Z,25.60
2019-05-01T06:54:59.992Z,25.59
2019-05-01T06:57:31.270Z,25.59
2019-05-01T07:00:08.119Z,25.59
2019-05-01T07:02:37.737Z,25.59
2019-05-01T07:05:14.152Z,25.58
2019-05-01T07:07:43.294Z,25.59
2019-05-01T07:10:13.139Z,25.59
2019-05-01T07:12:42.821Z,25.56
2019-05-01T07:15:12.542Z,25.53
2019-05-01T07:17:47.827Z,25.53
2019-05-01T07:20:25.480Z,25.52
2019-05-01T07:22:54.679Z,25.51
2019-05-01T07:25:24.302Z,25.51
2019-05-01T07:27:58.237Z,25.50
2019-05-01T07:30:49.863Z,25.52
2019-05-01T07:33:18.908Z,25.52
2019-05-01T07:35:49.040Z,25.53
2019-05-01T07:38:21.710Z,25.53
2019-05-01T07:40:51.323Z,25.55
2019-05-01T07:43:29.938Z,25.55
2019-05-01T07:46:09.166Z,25.55
2019-05-01T07:48:43.253Z,25.57
2019-05-01T07:51:12.975Z,25.58
2019-05-01T07:53:42.723Z,25.59
2019-05-01T07:56:12.487Z,25.59
2019-05-01T07:58:41.974Z,25.61
2019-05-01T08:01:33.463Z,25.63
2019-05-01T08:04:03.080Z,25.65
2019-05-01T08:06:32.648Z,25.68
2019-05-01T08:09:02.110Z,25.68
2019-05-01T08:11:31.646Z,25.69
2019-05-01T08:14:07.344Z,25.70
2019-05-01T08:16:32.585Z,25.70
2019-05-01T08:19:15.597Z,25.70
2019-05-01T08:22:10.652Z,25.70
2019-05-01T08:24:40.300Z,25.71
2019-05-01T08:27:20.237Z,25.70
2019-05-01T08:30:04.119Z,25.70
2019-05-01T08:32:40.788Z,25.71
2019-05-01T08:35:11.810Z,25.70
2019-05-01T08:37:41.375Z,25.71
2019-05-01T08:40:15.885Z,25.70
2019-05-01T08:42:44.217Z,25.70
2019-05-01T08:45:42.566Z,25.69
2019-05-01T08:48:43.702Z,25.70
2019-05-01T08:51:13.719Z,25.70
2019-05-01T08:53:43.311Z,25.69
2019-05-01T08:56:17.033Z,25.69
2019-05-01T08:58:44.773Z,25.68
2019-05-01T09:01:16.424Z,25.68
2019-05-01T09:03:49.827Z,25.68
2019-05-01T09:06:17.415Z,25.68
2019-05-01T09:08:46.920Z,25.66
2019-05-01T09:11:16.494Z,25.67
2019-05-01T09:13:45.979Z,25.64
2019-05-01T09:16:15.440Z,25.61
2019-05-01T09:18:44.896Z,25.60
2019-05-01T09:21:14.514Z,25.58
2019-05-01T09:23:46.276Z,25.59
2019-05-01T09:26:40.486Z,25.57
2019-05-01T09:40:09.133Z,25.24
2019-05-01T09:42:38.069Z,25.11
2019-05-01T09:45:08.736Z,25.11
2019-05-01T09:47:38.328Z,25.13
2019-05-01T09:50:07.986Z,25.17
2019-05-01T09:52:55.251Z,25.21
2019-05-01T09:55:30.694Z,25.24
2019-05-01T09:58:02.672Z,25.28
2019-05-01T10:00:32.437Z,25.31
2019-05-01T10:03:01.974Z,25.34
2019-05-01T10:05:31.489Z,25.37
2019-05-01T10:08:04.050Z,25.39
2019-05-01T10:10:32.338Z,25.42
2019-05-01T10:13:01.875Z,25.43
2019-05-01T10:15:31.347Z,25.44
2019-05-01T10:18:00.922Z,25.45
2019-05-01T10:20:30.424Z,25.46
2019-05-01T10:22:59.888Z,25.46
2019-05-01T10:25:29.500Z,25.46
2019-05-01T10:28:07.248Z,25.46
2019-05-01T10:30:48.724Z,25.46
2019-05-01T10:33:21.427Z,25.46
2019-05-01T10:36:18.890Z,25.46
2019-05-01T10:38:46.869Z,25.48
2019-05-01T10:41:16.584Z,25.48
2019-05-01T10:43:46.081Z,25.46
2019-05-01T10:46:15.681Z,25.48
2019-05-01T10:48:45.144Z,25.49
2019-05-01T10:51:14.724Z,25.52
2019-05-01T10:53:44.198Z,25.52
2019-05-01T10:56:13.776Z,25.54
2019-05-01T10:58:43.439Z,25.56
2019-05-01T11:01:27.645Z,25.56
2019-05-01T11:03:57.353Z,25.57
2019-05-01T11:06:27.792Z,25.57
2019-05-01T11:08:57.336Z,25.56
2019-05-01T11:11:26.869Z,25.56
2019-05-01T11:13:56.558Z,25.55
2019-05-01T11:16:26.189Z,25.56
2019-05-01T11:18:55.738Z,25.54
2019-05-01T11:21:25.364Z,25.53
2019-05-01T11:23:54.879Z,25.55
2019-05-01T11:26:24.542Z,25.55
2019-05-01T11:28:54.101Z,25.56
2019-05-01T11:31:28.802Z,25.55
2019-05-01T11:34:20.158Z,25.57
2019-05-01T11:37:17.937Z,25.56
2019-05-01T11:39:57.724Z,25.56
2019-05-01T11:42:27.351Z,25.56
2019-05-01T11:44:56.835Z,25.55
2019-05-01T11:47:26.397Z,25.55
2019-05-01T11:49:55.947Z,25.55
2019-05-01T11:52:25.395Z,25.56
2019-05-01T11:54:54.922Z,25.55
2019-05-01T11:57:24.477Z,25.54
2019-05-01T11:59:53.934Z,25.54
2019-05-01T12:02:23.383Z,25.53
2019-05-01T12:04:53.017Z,25.52
2019-05-01T12:07:22.593Z,25.51
2019-05-01T12:09:52.054Z,25.50
2019-05-01T12:12:23.230Z,25.50
2019-05-01T12:14:52.679Z,25.49
2019-05-01T12:17:33.293Z,25.48
2019-05-01T12:20:02.733Z,25.48
2019-05-01T12:22:32.294Z,25.47
2019-05-01T12:25:01.817Z,25.46
2019-05-01T12:27:31.282Z,25.46
2019-05-01T12:30:00.755Z,25.44
2019-05-01T12:32:30.377Z,25.45
2019-05-01T12:34:59.847Z,25.44
2019-05-01T12:37:37.404Z,25.44
2019-05-01T12:40:08.666Z,25.42
2019-05-01T12:42:38.254Z,25.41
2019-05-01T12:45:10.305Z,25.40
2019-05-01T12:47:47.194Z,25.39
2019-05-01T12:50:18.843Z,25.38
2019-05-01T12:53:06.116Z,25.39
2019-05-01T12:56:06.971Z,25.38
2019-05-01T12:58:37.562Z,25.37
2019-05-01T13:01:07.121Z,25.33
2019-05-01T13:03:36.646Z,25.32
2019-05-01T13:06:06.125Z,25.31
2019-05-01T13:08:35.665Z,25.28
2019-05-01T13:11:05.317Z,25.25
2019-05-01T13:13:34.925Z,25.23
2019-05-01T13:16:04.530Z,25.20
2019-05-01T13:18:34.038Z,25.17
2019-05-01T13:21:03.482Z,25.15
2019-05-01T13:23:33.029Z,25.13
2019-05-01T13:26:21.490Z,25.10
2019-05-01T13:29:05.210Z,25.09
2019-05-01T13:31:53.629Z,25.07
2019-05-01T13:34:23.267Z,25.05
2019-05-01T13:37:02.799Z,25.03
2019-05-01T13:39:24.386Z,25.03
2019-05-01T13:41:53.860Z,25.01
2019-05-01T13:44:23.350Z,24.99
2019-05-01T13:46:53.004Z,24.97
2019-05-01T13:49:22.577Z,24.95
2019-05-01T13:51:52.106Z,24.93
2019-05-01T13:54:21.680Z,24.89
2019-05-01T13:56:51.199Z,24.85
2019-05-01T13:59:20.788Z,24.82
2019-05-01T14:01:50.247Z,24.80
2019-05-01T14:04:21.773Z,24.76
2019-05-01T14:06:51.265Z,24.75
2019-05-01T14:09:33.386Z,24.73
2019-05-01T14:12:02.944Z,24.70
2019-05-01T14:14:32.374Z,24.68
2019-05-01T14:17:01.940Z,24.65
2019-05-01T14:19:32.067Z,24.63
2019-05-01T14:22:22.113Z,24.61
2019-05-01T14:24:54.673Z,24.58
2019-05-01T14:27:24.476Z,24.56
2019-05-01T14:29:54.108Z,24.54
2019-05-01T14:32:23.580Z,24.52
2019-05-01T14:34:53.208Z,24.50
2019-05-01T14:37:29.367Z,24.48
2019-05-01T14:39:53.943Z,24.47
2019-05-01T14:42:23.451Z,24.46
2019-05-01T14:44:52.981Z,24.45
2019-05-01T14:47:22.498Z,24.43
2019-05-01T14:49:51.968Z,24.41
2019-05-01T14:52:21.626Z,24.40
2019-05-01T14:54:51.325Z,24.40
2019-05-01T14:57:20.837Z,24.40
2019-05-01T14:59:50.347Z,24.40
2019-05-01T15:02:20.560Z,24.41
2019-05-01T15:04:50.402Z,24.42
2019-05-01T15:07:19.946Z,24.42
2019-05-01T15:09:49.625Z,24.41
2019-05-01T15:12:19.200Z,24.41
2019-05-01T15:15:07.626Z,24.41
2019-05-01T15:17:59.212Z,24.43
2019-05-01T15:20:28.987Z,24.43
2019-05-01T15:22:58.676Z,24.44
2019-05-01T15:25:29.502Z,24.44
2019-05-01T15:27:58.987Z,24.40
2019-05-01T15:30:31.194Z,24.44
2019-05-01T15:33:00.905Z,24.44
2019-05-01T15:35:30.742Z,24.43
2019-05-01T15:38:00.511Z,24.43
2019-05-01T15:40:38.596Z,24.43
2019-05-01T15:43:26.107Z,24.43
2019-05-01T15:45:55.921Z,24.43
2019-05-01T15:48:25.679Z,24.44
2019-05-01T15:50:57.929Z,24.44
2019-05-01T15:53:27.736Z,24.45
2019-05-01T15:55:57.519Z,24.46
2019-05-01T15:58:27.033Z,24.46
2019-05-01T16:00:56.685Z,24.47
2019-05-01T16:03:26.183Z,24.45
2019-05-01T16:05:55.693Z,24.44
2019-05-01T16:08:25.348Z,24.42
2019-05-01T16:11:01.729Z,24.40
2019-05-01T16:13:31.310Z,24.39
2019-05-01T16:16:00.916Z,24.37
2019-05-01T16:18:30.442Z,24.35
2019-05-01T16:20:59.981Z,24.34
2019-05-01T16:23:29.508Z,24.32
2019-05-01T16:25:59.047Z,24.31
2019-05-01T16:28:28.570Z,24.30
2019-05-01T16:30:58.453Z,24.27
2019-05-01T16:33:28.155Z,24.27
2019-05-01T16:35:57.637Z,24.26
2019-05-01T16:38:35.653Z,24.26
2019-05-01T16:41:07.564Z,24.26
2019-05-01T16:43:37.270Z,24.27
2019-05-01T16:46:06.985Z,24.27
2019-05-01T16:48:36.484Z,24.25
2019-05-01T16:51:06.319Z,24.25
2019-05-01T16:53:35.781Z,24.25
2019-05-01T16:56:05.482Z,24.24
2019-05-01T16:58:35.370Z,24.23
2019-05-01T17:01:10.714Z,24.22
2019-05-01T17:03:52.776Z,24.21
2019-05-01T17:06:50.611Z,24.21
2019-05-01T17:09:42.326Z,24.21
2019-05-01T17:12:13.715Z,24.20
2019-05-01T17:14:43.456Z,24.20
2019-05-01T17:17:16.798Z,24.19
2019-05-01T17:19:46.264Z,24.20
2019-05-01T17:22:16.269Z,24.20
2019-05-01T17:24:45.732Z,24.21
2019-05-01T17:27:15.365Z,24.22
2019-05-01T17:29:44.854Z,24.23
2019-05-01T17:32:16.114Z,23.89
2019-05-01T17:34:45.673Z,24.24
2019-05-01T17:37:15.117Z,24.25
2019-05-01T17:39:44.670Z,24.26
2019-05-01T17:42:14.222Z,24.13
2019-05-01T17:44:43.739Z,24.26
2019-05-01T17:47:13.346Z,24.26
2019-05-01T17:49:44.933Z,24.25
2019-05-01T17:52:14.197Z,24.24
2019-05-01T17:54:43.734Z,24.23
2019-05-01T17:57:13.254Z,24.22
2019-05-01T17:59:43.630Z,24.21
2019-05-01T18:02:26.879Z,24.19
2019-05-01T18:05:01.953Z,24.19
2019-05-01T18:07:33.232Z,24.17
2019-05-01T18:10:02.822Z,24.16
2019-05-01T18:12:32.423Z,24.15
2019-05-01T18:15:02.036Z,24.14
2019-05-01T18:17:31.635Z,24.13
2019-05-01T18:20:01.135Z,24.12
2019-05-01T18:22:48.675Z,24.12
2019-05-01T18:25:34.919Z,24.12
2019-05-01T18:28:24.912Z,24.10
2019-05-01T18:30:56.476Z,24.09
2019-05-01T18:33:27.227Z,24.08
2019-05-01T18:35:57.464Z,24.09
2019-05-01T18:38:49.036Z,24.11
2019-05-01T18:41:22.062Z,24.14
2019-05-01T18:43:51.619Z,24.15
2019-05-01T18:46:21.271Z,24.15
2019-05-01T18:48:51.167Z,24.15
2019-05-01T18:51:20.784Z,24.14
2019-05-01T18:53:50.318Z,24.12
2019-05-01T18:56:19.972Z,24.11
2019-05-01T18:58:49.545Z,24.09
2019-05-01T19:01:19.243Z,24.09
2019-05-01T19:03:49.163Z,24.08
2019-05-01T19:06:18.926Z,24.06
2019-05-01T19:08:48.722Z,24.06
2019-05-01T19:11:18.737Z,24.06
2019-05-01T19:13:48.331Z,24.05
2019-05-01T19:16:17.906Z,24.04
2019-05-01T19:18:47.661Z,24.04
2019-05-01T19:21:18.942Z,24.03
2019-05-01T19:23:48.563Z,24.02
2019-05-01T19:26:19.962Z,24.01
2019-05-01T19:28:49.462Z,24.02
2019-05-01T19:31:21.380Z,24.01
2019-05-01T19:33:50.525Z,24.00
2019-05-01T19:36:20.039Z,23.99
2019-05-01T19:38:49.526Z,23.98
2019-05-01T19:41:19.364Z,23.98
2019-05-01T19:43:48.892Z,23.99
2019-05-01T19:46:19.587Z,23.99
2019-05-01T19:48:50.659Z,23.98
2019-05-01T19:51:24.126Z,23.99
2019-05-01T19:53:53.474Z,23.99
2019-05-01T19:56:23.396Z,23.99
2019-05-01T19:58:53.131Z,23.98
2019-05-01T20:01:22.759Z,23.99
2019-05-01T20:03:52.347Z,24.00
2019-05-01T20:06:21.989Z,24.01
2019-05-01T20:08:51.571Z,24.01
2019-05-01T20:11:21.267Z,24.00
2019-05-01T20:13:50.877Z,23.99
2019-05-01T20:16:21.380Z,23.98
2019-05-01T20:18:51.082Z,23.95
2019-05-01T20:21:20.589Z,23.95
2019-05-01T20:23:50.126Z,23.94
2019-05-01T20:26:19.849Z,23.92
2019-05-01T20:28:49.380Z,23.92
2019-05-01T20:31:20.901Z,23.91
2019-05-01T20:33:50.099Z,23.90
2019-05-01T20:36:19.754Z,23.89
2019-05-01T20:38:49.222Z,23.90
2019-05-01T20:41:18.834Z,23.89
2019-05-01T20:43:48.438Z,23.88
2019-05-01T20:46:21.243Z,23.87
2019-05-01T20:48:49.267Z,23.86
2019-05-01T20:51:20.303Z,23.86
2019-05-01T20:53:49.918Z,23.86
2019-05-01T20:56:31.149Z,23.87
2019-05-01T20:59:02.951Z,23.90
2019-05-01T21:01:32.321Z,23.91
2019-05-01T21:04:20.826Z,23.94
2019-05-01T21:09:47.106Z,23.98
2019-05-01T21:12:10.872Z,24.01
2019-05-01T21:14:40.455Z,24.03
2019-05-01T21:17:13.699Z,24.03
2019-05-01T21:19:41.129Z,24.05
2019-05-01T21:22:10.696Z,24.06
2019-05-01T21:24:40.221Z,24.06
2019-05-01T21:27:09.789Z,24.06
2019-05-01T21:29:39.263Z,24.06
2019-05-01T21:32:08.722Z,24.08
2019-05-01T21:34:38.211Z,24.08
2019-05-01T21:37:07.757Z,24.08
2019-05-01T21:39:37.220Z,24.08
2019-05-01T21:42:11.741Z,24.08
2019-05-01T21:44:38.072Z,24.08
2019-05-01T21:47:07.611Z,24.07
2019-05-01T21:49:37.190Z,24.07
2019-05-01T21:52:07.401Z,24.06
2019-05-01T21:54:37.084Z,24.04
2019-05-01T21:57:06.737Z,24.03
2019-05-01T21:59:39.800Z,24.01
2019-05-01T22:02:10.081Z,23.98
2019-05-01T22:04:38.938Z,23.97
2019-05-01T22:07:09.159Z,23.95
2019-05-01T22:09:38.797Z,23.93
2019-05-01T22:12:13.015Z,23.93
2019-05-01T22:14:48.634Z,23.92
2019-05-01T22:17:32.132Z,23.92
2019-05-01T22:19:59.007Z,23.90
2019-05-01T22:22:44.005Z,23.90
2019-05-01T22:25:23.176Z,23.89
2019-05-01T22:28:02.321Z,23.88
2019-05-01T22:30:42.285Z,23.88
2019-05-01T22:33:09.907Z,23.87
2019-05-01T22:35:46.338Z,23.87
2019-05-01T22:38:16.173Z,23.88
2019-05-01T22:41:06.487Z,23.88
2019-05-01T22:43:31.291Z,23.90
2019-05-01T22:46:03.369Z,23.89
2019-05-01T22:48:32.993Z,23.90
2019-05-01T22:51:09.581Z,23.89
2019-05-01T22:53:39.161Z,23.89
2019-05-01T22:56:10.182Z,23.89
2019-05-01T22:58:39.772Z,23.88
2019-05-01T23:01:13.336Z,23.89
2019-05-01T23:03:49.088Z,23.88
2019-05-01T23:06:18.906Z,23.88
2019-05-01T23:08:49.003Z,23.88
2019-05-01T23:11:20.351Z,23.88
2019-05-01T23:13:50.450Z,23.88
2019-05-01T23:16:21.874Z,23.88
2019-05-01T23:18:53.092Z,23.89
2019-05-01T23:21:25.882Z,23.89
2019-05-01T23:23:56.828Z,23.87
2019-05-01T23:26:27.739Z,23.88
2019-05-01T23:28:57.274Z,23.87
2019-05-01T23:31:26.919Z,23.88
2019-05-01T23:33:56.527Z,23.87
2019-05-01T23:36:26.083Z,23.87
2019-05-01T23:38:55.667Z,23.89
2019-05-01T23:41:44.703Z,23.89
2019-05-01T23:43:58.157Z,23.89
2019-05-01T23:46:27.797Z,23.89
2019-05-01T23:48:57.252Z,23.88
2019-05-01T23:51:28.502Z,23.88
2019-05-01T23:53:58.282Z,23.88
2019-05-01T23:56:31.145Z,23.88
2019-05-01T23:58:59.230Z,23.88
